Tampico, Mexico

8:52 AM CDT on September 02, 2015 (GMT -0500)
Gen Francisco Javier Mina | | Change Station
CLOSE
Current Station
Airport
Location: Tampico,
Elevation: 79 ft
Nearby Weather Stations

Elev 79 ft 22.30 °N, 97.87 °W | Updated 9 minutes ago

Mostly Cloudy
Mostly Cloudy
77 °F
Feels Like 77 °F
N
6
Wind Variable Wind from SE

Today
High -- | Low -- °F
--% Chance of Precip.
Yesterday
High -- | Low -- °F
Precip. -- in
7:14 AM 7:47 PM
Waning Gibbous, 80% visible
Pressure 29.96 in
Visibility 5.0 miles
Clouds Scattered Clouds 7000 ft
Mostly Cloudy 20000 ft
Dew Point 73 °F
Humidity 89%
Rainfall 0.00 in
Snow Depth Not available.
UV 1 out of 12
Pollen Not available.
Air Quality Not available.
Flu Activity Not available.
METAR MMTM 021343Z 13005KT 5SM SCT070 BKN200 25/23 A2996 RMK 8/072 DSNT CB 1ST AND 2ND QUAD
Pressure 29.96 in
Visibility 5.0 miles
Clouds Scattered Clouds 7000 ft
Mostly Cloudy 20000 ft
Dew Point 73 °F
Humidity 89%
Rainfall 0.00 in
Snow Depth Not available.
UV 1 out of 12
Pollen Not available.
Air Quality Not available.
Flu Activity Not available.
METAR MMTM 021343Z 13005KT 5SM SCT070 BKN200 25/23 A2996 RMK 8/072 DSNT CB 1ST AND 2ND QUAD

10-Day Weather Forecast

×

Almanac

Astronomy

Sep. 02, 2015 Rise Set
Actual Time
Civil Twilight
Nautical Twilight
Astronomical Twilight
Moon
Length of Visible Light
Length of Day
Tomorrow will be .
, % of the Moon is Illuminated

Today's Extremes

Country Highs Country Lows

Community

WunderPhotos

Upload Photos

1,851,754 photos uploaded!

WunderBlogs® & News

Nearby

Air Quality

  Air Quality AQ Index Pollutant
Not available.

Snow Depth

Station Depth Elevation

Earthquake Activity

City Distance Mag. Time & Date
Minimum magnitude displayed is 2.5.

Coastal Water Temperatures

Place Temperature

Stations

Nearby Weather Stations

Station Location Temp. Windchill Dew Point Humidity Wind Precip. Elev Updated Type